Prescott, Wisconsin
Current Conditions -  °F | °C
As of 8:10 PM on Sunday 21 Dec 2014 (Local Time) from KSGS Reporting Station
Light Rain Light Rain  
Wind Chill: 34°   Ceiling: 1000
Heat Index: 37°   Visibility: 5mi
Dew Point: 36°   Wind: 5mph
Humidity: 96%   Direction: 160°SSE
Pressure: 29.74"   Gusts: NA
Location:  44.75°N, 92.8°W
Report Text: KSGS 220210Z AUTO 16004KT 5SM -RA OVC010 03/02 A2974 RMK AO2 T00300024
Loading
Personal Weather Stations






























Interactive Weather Map New forecast layout! Learn more

10-Day Weather Forecast

Advertisements
Track Severe Weather on mobile